TimePDT,TemperatureF,Dew PointF,Humidity,Sea Level PressureIn,VisibilityMPH,Wind Direction,Wind SpeedMPH,Gust SpeedMPH,PrecipitationIn,Events,Conditions,WindDirDegrees,DateUTC
12:10 AM,44.6,44.6,100,30.18,10.0,Calm,Calm,-,N/A,,Clear,0,2012-10-30 07:10:00
12:30 AM,44.6,42.8,93,30.17,10.0,West,4.6,-,N/A,,Clear,270,2012-10-30 07:30:00
12:50 AM,44.6,42.8,93,30.18,10.0,Calm,Calm,-,N/A,,Clear,0,2012-10-30 07:50:00
1:10 AM,44.6,42.8,93,30.18,10.0,Calm,Calm,-,N/A,,Clear,0,2012-10-30 08:10:00
1:30 AM,44.6,42.8,93,30.17,10.0,Calm,Calm,-,N/A,,Clear,0,2012-10-30 08:30:00
1:50 AM,44.6,42.8,93,30.17,10.0,Calm,Calm,-,N/A,,Clear,0,2012-10-30 08:50:00
2:10 AM,44.6,42.8,93,30.17,10.0,Calm,Calm,-,N/A,,Clear,0,2012-10-30 09:10:00
2:30 AM,44.6,42.8,93,30.17,10.0,Calm,Calm,-,N/A,,Clear,0,2012-10-30 09:30:00
2:50 AM,44.6,41.0,87,30.16,10.0,WNW,3.5,-,N/A,,Clear,300,2012-10-30 09:50:00
3:10 AM,42.8,41.0,93,30.17,10.0,Calm,Calm,-,N/A,,Clear,0,2012-10-30 10:10:00
3:30 AM,44.6,42.8,93,30.16,10.0,West,3.5,-,N/A,,Clear,270,2012-10-30 10:30:00
3:50 AM,42.8,41.0,93,30.17,10.0,WNW,3.5,-,N/A,,Clear,290,2012-10-30 10:50:00
4:10 AM,42.8,41.0,93,30.16,10.0,Calm,Calm,-,N/A,,Clear,0,2012-10-30 11:10:00
4:30 AM,42.8,41.0,93,30.17,10.0,WNW,4.6,-,N/A,,Clear,290,2012-10-30 11:30:00
5:30 AM,44.6,41.0,87,30.16,10.0,Calm,Calm,-,N/A,,Mostly Cloudy,0,2012-10-30 12:30:00
5:50 AM,44.6,42.8,93,30.16,10.0,Calm,Calm,-,N/A,,Scattered Clouds,0,2012-10-30 12:50:00
6:10 AM,42.8,41.0,93,30.16,10.0,Calm,Calm,-,N/A,,Clear,0,2012-10-30 13:10:00
6:30 AM,42.8,41.0,93,30.16,9.0,West,4.6,-,N/A,,Clear,280,2012-10-30 13:30:00
6:50 AM,41.0,41.0,100,30.16,10.0,Calm,Calm,-,N/A,,Clear,0,2012-10-30 13:50:00
7:10 AM,41.0,41.0,100,30.16,10.0,Calm,Calm,-,N/A,,Clear,0,2012-10-30 14:10:00
7:30 AM,41.0,41.0,100,30.15,10.0,Calm,Calm,-,N/A,,Clear,0,2012-10-30 14:30:00
7:50 AM,41.0,41.0,100,30.16,10.0,WNW,3.5,-,N/A,,Clear,290,2012-10-30 14:50:00
8:10 AM,42.8,41.0,93,30.17,10.0,Calm,Calm,-,N/A,,Clear,0,2012-10-30 15:10:00
8:30 AM,44.6,42.8,93,30.18,10.0,Calm,Calm,-,N/A,,Mostly Cloudy,0,2012-10-30 15:30:00
8:50 AM,44.6,42.8,93,30.17,9.0,Calm,Calm,-,N/A,,Overcast,0,2012-10-30 15:50:00
9:10 AM,46.4,44.6,93,30.16,10.0,Calm,Calm,-,N/A,,Scattered Clouds,0,2012-10-30 16:10:00
9:30 AM,48.2,46.4,93,30.16,10.0,Calm,Calm,-,N/A,,Clear,0,2012-10-30 16:30:00
10:10 AM,50.0,46.4,87,30.16,10.0,Calm,Calm,-,N/A,,Clear,0,2012-10-30 17:10:00
10:30 AM,50.0,46.4,87,30.15,10.0,Calm,Calm,-,N/A,,Clear,0,2012-10-30 17:30:00
10:50 AM,51.8,46.4,82,30.15,10.0,Calm,Calm,-,N/A,,Clear,0,2012-10-30 17:50:00
11:10 AM,53.6,46.4,77,30.14,10.0,Calm,Calm,-,N/A,,Clear,0,2012-10-30 18:10:00
11:30 AM,55.4,46.4,72,30.14,10.0,Calm,Calm,-,N/A,,Clear,0,2012-10-30 18:30:00
11:50 AM,57.2,46.4,67,30.13,10.0,Calm,Calm,-,N/A,,Clear,0,2012-10-30 18:50:00
12:10 PM,57.2,46.4,67,30.12,10.0,Calm,Calm,-,N/A,,Clear,0,2012-10-30 19:10:00
12:30 PM,59.0,46.4,63,30.12,10.0,Calm,Calm,-,N/A,,Clear,0,2012-10-30 19:30:00
12:50 PM,59.0,48.2,67,30.11,10.0,SE,3.5,-,N/A,,Clear,140,2012-10-30 19:50:00
1:10 PM,64.4,48.2,56,30.09,10.0,South,6.9,-,N/A,,Clear,190,2012-10-30 20:10:00
1:30 PM,66.2,48.2,52,30.08,10.0,SSW,8.1,-,N/A,,Clear,200,2012-10-30 20:30:00
1:50 PM,66.2,46.4,49,30.08,10.0,South,10.4,17.3,N/A,,Clear,190,2012-10-30 20:50:00
2:10 PM,66.2,44.6,46,30.08,10.0,South,5.8,-,N/A,,Clear,180,2012-10-30 21:10:00
2:30 PM,68.0,44.6,43,30.07,10.0,South,6.9,-,N/A,,Clear,180,2012-10-30 21:30:00
2:50 PM,68.0,44.6,43,30.06,10.0,South,10.4,-,N/A,,Clear,180,2012-10-30 21:50:00
3:10 PM,68.0,42.8,40,30.06,10.0,South,9.2,-,N/A,,Clear,180,2012-10-30 22:10:00
3:30 PM,68.0,42.8,40,30.05,10.0,SSW,8.1,-,N/A,,Clear,200,2012-10-30 22:30:00
3:50 PM,66.2,41.0,40,30.05,10.0,South,8.1,-,N/A,,Clear,170,2012-10-30 22:50:00
4:10 PM,66.2,41.0,40,30.05,10.0,South,8.1,-,N/A,,Clear,180,2012-10-30 23:10:00
4:30 PM,64.4,41.0,42,30.04,10.0,SSW,4.6,-,N/A,,Clear,210,2012-10-30 23:30:00
4:50 PM,64.4,41.0,42,30.03,10.0,SSW,4.6,-,N/A,,Clear,210,2012-10-30 23:50:00
5:10 PM,64.4,41.0,42,30.03,10.0,Calm,Calm,-,N/A,,Clear,0,2012-10-31 00:10:00
5:30 PM,60.8,44.6,55,30.03,10.0,Calm,Calm,-,N/A,,Clear,0,2012-10-31 00:30:00
5:50 PM,57.2,46.4,67,30.03,10.0,Calm,Calm,-,N/A,,Clear,0,2012-10-31 00:50:00
6:30 PM,55.4,46.4,72,30.03,10.0,Calm,Calm,-,N/A,,Clear,0,2012-10-31 01:30:00
6:50 PM,55.4,46.4,72,30.03,10.0,West,3.5,-,N/A,,Clear,260,2012-10-31 01:50:00
7:10 PM,55.4,46.4,72,30.03,10.0,West,4.6,-,N/A,,Clear,270,2012-10-31 02:10:00
7:30 PM,53.6,46.4,77,30.03,10.0,West,3.5,-,N/A,,Clear,270,2012-10-31 02:30:00
7:50 PM,51.8,46.4,82,30.03,10.0,West,4.6,-,N/A,,Clear,260,2012-10-31 02:50:00
8:30 PM,50.0,46.4,87,30.03,10.0,West,4.6,-,N/A,,Clear,270,2012-10-31 03:30:00
8:50 PM,50.0,44.6,82,30.03,10.0,West,4.6,-,N/A,,Clear,270,2012-10-31 03:50:00
9:10 PM,50.0,44.6,82,30.03,10.0,West,4.6,-,N/A,,Clear,270,2012-10-31 04:10:00
9:30 PM,48.2,44.6,87,30.03,10.0,West,4.6,-,N/A,,Clear,270,2012-10-31 04:30:00
9:50 PM,48.2,44.6,87,30.03,10.0,West,4.6,-,N/A,,Clear,260,2012-10-31 04:50:00
10:10 PM,48.2,44.6,87,30.04,10.0,West,3.5,-,N/A,,Partly Cloudy,260,2012-10-31 05:10:00
10:30 PM,48.2,44.6,87,30.04,10.0,Calm,Calm,-,N/A,,Scattered Clouds,0,2012-10-31 05:30:00
10:50 PM,48.2,44.6,87,30.04,10.0,West,3.5,-,N/A,,Mostly Cloudy,280,2012-10-31 05:50:00
11:10 PM,48.2,44.6,87,30.03,10.0,Calm,Calm,-,N/A,,Overcast,0,2012-10-31 06:10:00
11:50 PM,48.2,44.6,87,30.03,10.0,Calm,Calm,-,N/A,,Overcast,0,2012-10-31 06:50:00